LLBG/TLV METAR and TAF weather

Enter ICAO airport designator
Station Type Date Time Source
LLBG METAR 2022/08/16 19:50 UTC NOAA

LLBG 161950Z 36006KT 310V020 9999 BKN026 28/22 Q1008 NOSIG


Station Type Date Time Source
LLBG Decoded METAR 2022/08/16 19:50 UTC NOAA

Ben-Gurion International Airport, Israel (LLBG) 32-00N 034-54E 49M
Aug 16, 2022 - 03:50 PM EDT / 2022.08.16 1950 UTC
Wind: from the N (360 degrees) at 7 MPH (6 KT) (direction variable):0
Visibility: greater than 7 mile(s):0
Sky conditions: mostly cloudy
Temperature: 82 F (28 C)
Dew Point: 71 F (22 C)
Relative Humidity: 69%
Pressure (altimeter): 29.77 in. Hg (1008 hPa)
ob: LLBG 161950Z 36006KT 310V020 9999 BKN026 28/22 Q1008 NOSIG
cycle: 20

Station Type Date Time Source
LLBG TAF 2022/08/16 18:07 UTC NOAA

TAF LLBG 161704Z 1618/1718 35006KT 9999 FEW025
BECMG 1619/1621 VRB03KT SCT025
TEMPO 1622/1706 BKN025
BECMG 1707/1709 30012KT CAVOK
BECMG 1715/1717 35005KT 9999 FEW020 TX32/1710Z TN25/1703Z

Example: see airport list